sensor_id;sensor_type;location;lat;lon;timestamp;P1;durP1;ratioP1;P2;durP2;ratioP2
75135;SDS011;63707;52.212;9.540;2023-02-16T00:00:41;67.22;;;25.67;;
75135;SDS011;63707;52.212;9.540;2023-02-16T00:03:08;61.83;;;25.40;;
75135;SDS011;63707;52.212;9.540;2023-02-16T00:05:35;58.67;;;23.83;;
75135;SDS011;63707;52.212;9.540;2023-02-16T00:08:00;64.25;;;24.38;;
75135;SDS011;63707;52.212;9.540;2023-02-16T00:10:28;57.45;;;23.15;;
75135;SDS011;63707;52.212;9.540;2023-02-16T00:12:55;62.85;;;26.35;;
75135;SDS011;63707;52.212;9.540;2023-02-16T00:15:41;69.40;;;26.50;;
75135;SDS011;63707;52.212;9.540;2023-02-16T00:18:11;64.43;;;26.25;;
75135;SDS011;63707;52.212;9.540;2023-02-16T00:20:40;68.03;;;26.73;;
75135;SDS011;63707;52.212;9.540;2023-02-16T00:23:05;73.13;;;27.85;;
75135;SDS011;63707;52.212;9.540;2023-02-16T00:25:31;63.30;;;25.65;;
75135;SDS011;63707;52.212;9.540;2023-02-16T00:27:56;61.67;;;25.10;;
75135;SDS011;63707;52.212;9.540;2023-02-16T00:30:22;70.72;;;26.40;;
75135;SDS011;63707;52.212;9.540;2023-02-16T00:32:49;67.70;;;27.05;;
75135;SDS011;63707;52.212;9.540;2023-02-16T00:35:15;64.00;;;26.08;;
75135;SDS011;63707;52.212;9.540;2023-02-16T00:37:41;67.93;;;25.67;;
75135;SDS011;63707;52.212;9.540;2023-02-16T00:40:07;69.60;;;28.45;;
75135;SDS011;63707;52.212;9.540;2023-02-16T00:42:33;65.60;;;26.52;;
75135;SDS011;63707;52.212;9.540;2023-02-16T00:44:59;71.57;;;26.15;;
75135;SDS011;63707;52.212;9.540;2023-02-16T00:47:26;70.20;;;27.52;;
75135;SDS011;63707;52.212;9.540;2023-02-16T00:49:57;66.53;;;25.98;;
75135;SDS011;63707;52.212;9.540;2023-02-16T00:52:28;68.78;;;26.63;;
75135;SDS011;63707;52.212;9.540;2023-02-16T00:54:56;78.05;;;28.98;;
75135;SDS011;63707;52.212;9.540;2023-02-16T00:57:23;75.25;;;27.38;;
75135;SDS011;63707;52.212;9.540;2023-02-16T00:59:53;69.65;;;28.10;;
75135;SDS011;63707;52.212;9.540;2023-02-16T01:02:22;72.97;;;28.85;;
75135;SDS011;63707;52.212;9.540;2023-02-16T01:04:47;70.95;;;25.67;;
75135;SDS011;63707;52.212;9.540;2023-02-16T01:07:14;66.68;;;27.92;;
75135;SDS011;63707;52.212;9.540;2023-02-16T01:10:01;67.32;;;24.30;;
75135;SDS011;63707;52.212;9.540;2023-02-16T01:12:45;68.50;;;27.73;;
75135;SDS011;63707;52.212;9.540;2023-02-16T01:15:11;68.97;;;27.00;;
75135;SDS011;63707;52.212;9.540;2023-02-16T01:17:38;70.85;;;28.40;;
75135;SDS011;63707;52.212;9.540;2023-02-16T01:20:08;71.07;;;27.75;;
75135;SDS011;63707;52.212;9.540;2023-02-16T01:22:40;69.38;;;25.55;;
75135;SDS011;63707;52.212;9.540;2023-02-16T01:25:05;67.80;;;26.98;;
75135;SDS011;63707;52.212;9.540;2023-02-16T01:27:31;65.32;;;24.25;;
75135;SDS011;63707;52.212;9.540;2023-02-16T01:29:57;71.38;;;25.38;;
75135;SDS011;63707;52.212;9.540;2023-02-16T01:32:23;66.97;;;27.98;;
75135;SDS011;63707;52.212;9.540;2023-02-16T01:34:48;64.25;;;28.17;;
75135;SDS011;63707;52.212;9.540;2023-02-16T01:37:14;61.60;;;24.42;;
75135;SDS011;63707;52.212;9.540;2023-02-16T01:39:41;69.90;;;28.70;;
75135;SDS011;63707;52.212;9.540;2023-02-16T01:42:12;62.63;;;25.25;;
75135;SDS011;63707;52.212;9.540;2023-02-16T01:44:48;67.07;;;26.08;;
75135;SDS011;63707;52.212;9.540;2023-02-16T01:47:26;67.55;;;26.67;;
75135;SDS011;63707;52.212;9.540;2023-02-16T01:49:58;64.88;;;25.55;;
75135;SDS011;63707;52.212;9.540;2023-02-16T01:52:25;71.15;;;27.83;;
75135;SDS011;63707;52.212;9.540;2023-02-16T01:54:57;70.80;;;26.30;;
75135;SDS011;63707;52.212;9.540;2023-02-16T01:57:32;55.57;;;22.33;;
75135;SDS011;63707;52.212;9.540;2023-02-16T02:00:12;69.38;;;26.13;;
75135;SDS011;63707;52.212;9.540;2023-02-16T02:02:40;73.63;;;28.77;;
75135;SDS011;63707;52.212;9.540;2023-02-16T02:05:18;74.72;;;28.65;;
75135;SDS011;63707;52.212;9.540;2023-02-16T02:08:00;69.43;;;28.02;;
75135;SDS011;63707;52.212;9.540;2023-02-16T02:10:34;70.97;;;27.57;;
75135;SDS011;63707;52.212;9.540;2023-02-16T02:13:10;75.93;;;27.13;;
75135;SDS011;63707;52.212;9.540;2023-02-16T02:15:42;52.72;;;21.30;;
75135;SDS011;63707;52.212;9.540;2023-02-16T02:18:07;74.32;;;27.92;;
75135;SDS011;63707;52.212;9.540;2023-02-16T02:20:39;71.93;;;27.92;;
75135;SDS011;63707;52.212;9.540;2023-02-16T02:23:35;69.70;;;25.00;;
75135;SDS011;63707;52.212;9.540;2023-02-16T02:26:42;74.88;;;28.35;;
75135;SDS011;63707;52.212;9.540;2023-02-16T02:32:36;72.47;;;28.77;;
75135;SDS011;63707;52.212;9.540;2023-02-16T02:35:18;75.85;;;28.20;;
75135;SDS011;63707;52.212;9.540;2023-02-16T02:37:55;71.57;;;28.13;;
75135;SDS011;63707;52.212;9.540;2023-02-16T02:40:29;79.70;;;29.95;;
75135;SDS011;63707;52.212;9.540;2023-02-16T02:43:06;70.70;;;28.98;;
75135;SDS011;63707;52.212;9.540;2023-02-16T02:45:39;73.93;;;29.73;;
75135;SDS011;63707;52.212;9.540;2023-02-16T02:48:07;74.75;;;29.02;;
75135;SDS011;63707;52.212;9.540;2023-02-16T02:50:37;72.10;;;29.00;;
75135;SDS011;63707;52.212;9.540;2023-02-16T02:53:28;72.55;;;29.52;;
75135;SDS011;63707;52.212;9.540;2023-02-16T02:55:55;77.18;;;30.02;;
75135;SDS011;63707;52.212;9.540;2023-02-16T02:58:43;72.13;;;29.13;;
75135;SDS011;63707;52.212;9.540;2023-02-16T03:01:35;76.80;;;29.77;;
75135;SDS011;63707;52.212;9.540;2023-02-16T03:04:05;75.70;;;29.73;;
75135;SDS011;63707;52.212;9.540;2023-02-16T03:06:35;74.15;;;29.60;;
75135;SDS011;63707;52.212;9.540;2023-02-16T03:09:06;78.97;;;28.73;;
75135;SDS011;63707;52.212;9.540;2023-02-16T03:11:35;74.50;;;29.02;;
75135;SDS011;63707;52.212;9.540;2023-02-16T03:14:23;78.13;;;28.20;;
75135;SDS011;63707;52.212;9.540;2023-02-16T03:16:53;77.85;;;28.48;;
75135;SDS011;63707;52.212;9.540;2023-02-16T03:19:40;79.35;;;31.13;;
75135;SDS011;63707;52.212;9.540;2023-02-16T03:22:26;81.55;;;31.65;;
75135;SDS011;63707;52.212;9.540;2023-02-16T03:25:11;91.45;;;31.95;;
75135;SDS011;63707;52.212;9.540;2023-02-16T03:27:55;80.38;;;31.08;;
75135;SDS011;63707;52.212;9.540;2023-02-16T03:30:44;85.57;;;32.33;;
75135;SDS011;63707;52.212;9.540;2023-02-16T03:33:10;84.30;;;31.33;;
75135;SDS011;63707;52.212;9.540;2023-02-16T03:35:36;82.20;;;31.83;;
75135;SDS011;63707;52.212;9.540;2023-02-16T03:38:02;79.85;;;32.13;;
75135;SDS011;63707;52.212;9.540;2023-02-16T03:40:29;77.35;;;29.88;;
75135;SDS011;63707;52.212;9.540;2023-02-16T03:42:59;81.38;;;30.83;;
75135;SDS011;63707;52.212;9.540;2023-02-16T03:45:26;88.97;;;31.70;;
75135;SDS011;63707;52.212;9.540;2023-02-16T03:47:54;84.22;;;32.40;;
75135;SDS011;63707;52.212;9.540;2023-02-16T03:50:19;85.72;;;33.40;;
75135;SDS011;63707;52.212;9.540;2023-02-16T03:52:45;82.40;;;31.90;;
75135;SDS011;63707;52.212;9.540;2023-02-16T03:55:10;82.28;;;31.77;;
75135;SDS011;63707;52.212;9.540;2023-02-16T03:57:36;89.80;;;31.58;;
75135;SDS011;63707;52.212;9.540;2023-02-16T04:00:02;85.65;;;32.92;;
75135;SDS011;63707;52.212;9.540;2023-02-16T04:02:27;82.85;;;33.95;;
75135;SDS011;63707;52.212;9.540;2023-02-16T04:04:54;86.45;;;30.33;;
75135;SDS011;63707;52.212;9.540;2023-02-16T04:07:20;92.28;;;34.17;;
75135;SDS011;63707;52.212;9.540;2023-02-16T04:09:45;78.78;;;29.10;;
75135;SDS011;63707;52.212;9.540;2023-02-16T04:12:11;92.22;;;32.10;;
75135;SDS011;63707;52.212;9.540;2023-02-16T04:14:55;87.65;;;32.13;;
75135;SDS011;63707;52.212;9.540;2023-02-16T04:17:20;88.45;;;33.00;;
75135;SDS011;63707;52.212;9.540;2023-02-16T04:19:46;87.95;;;33.15;;
75135;SDS011;63707;52.212;9.540;2023-02-16T04:22:13;95.88;;;35.33;;
75135;SDS011;63707;52.212;9.540;2023-02-16T04:24:38;94.75;;;32.72;;
75135;SDS011;63707;52.212;9.540;2023-02-16T04:27:04;86.50;;;30.73;;
75135;SDS011;63707;52.212;9.540;2023-02-16T04:29:29;83.88;;;31.65;;
75135;SDS011;63707;52.212;9.540;2023-02-16T04:31:55;88.32;;;31.73;;
75135;SDS011;63707;52.212;9.540;2023-02-16T04:34:20;89.82;;;33.00;;
75135;SDS011;63707;52.212;9.540;2023-02-16T04:36:46;95.47;;;32.65;;
75135;SDS011;63707;52.212;9.540;2023-02-16T04:39:13;91.45;;;32.22;;
75135;SDS011;63707;52.212;9.540;2023-02-16T04:41:38;103.13;;;34.65;;
75135;SDS011;63707;52.212;9.540;2023-02-16T04:44:04;97.40;;;33.97;;
75135;SDS011;63707;52.212;9.540;2023-02-16T04:46:29;99.03;;;34.50;;
75135;SDS011;63707;52.212;9.540;2023-02-16T04:48:55;95.65;;;34.33;;
75135;SDS011;63707;52.212;9.540;2023-02-16T04:51:20;95.93;;;32.72;;
75135;SDS011;63707;52.212;9.540;2023-02-16T04:53:46;98.38;;;35.38;;
75135;SDS011;63707;52.212;9.540;2023-02-16T04:56:13;96.68;;;34.58;;
75135;SDS011;63707;52.212;9.540;2023-02-16T04:58:38;102.25;;;35.03;;
75135;SDS011;63707;52.212;9.540;2023-02-16T05:01:04;108.03;;;36.65;;
75135;SDS011;63707;52.212;9.540;2023-02-16T05:03:29;104.85;;;36.03;;
75135;SDS011;63707;52.212;9.540;2023-02-16T05:05:55;101.25;;;34.63;;
75135;SDS011;63707;52.212;9.540;2023-02-16T05:08:21;100.35;;;33.33;;
75135;SDS011;63707;52.212;9.540;2023-02-16T05:10:46;100.40;;;35.25;;
75135;SDS011;63707;52.212;9.540;2023-02-16T05:13:36;125.10;;;38.70;;
75135;SDS011;63707;52.212;9.540;2023-02-16T05:16:21;112.05;;;37.08;;
75135;SDS011;63707;52.212;9.540;2023-02-16T05:18:46;105.13;;;37.05;;
75135;SDS011;63707;52.212;9.540;2023-02-16T05:21:12;99.75;;;36.33;;
75135;SDS011;63707;52.212;9.540;2023-02-16T05:23:55;83.72;;;28.25;;
75135;SDS011;63707;52.212;9.540;2023-02-16T05:26:21;107.30;;;36.55;;
75135;SDS011;63707;52.212;9.540;2023-02-16T05:28:48;108.05;;;36.90;;
75135;SDS011;63707;52.212;9.540;2023-02-16T05:31:13;105.95;;;35.78;;
75135;SDS011;63707;52.212;9.540;2023-02-16T05:33:39;96.13;;;33.75;;
75135;SDS011;63707;52.212;9.540;2023-02-16T05:36:05;115.82;;;36.85;;
75135;SDS011;63707;52.212;9.540;2023-02-16T05:38:30;116.00;;;38.13;;
75135;SDS011;63707;52.212;9.540;2023-02-16T05:40:57;107.03;;;35.40;;
75135;SDS011;63707;52.212;9.540;2023-02-16T05:43:23;107.30;;;36.75;;
75135;SDS011;63707;52.212;9.540;2023-02-16T05:45:50;113.30;;;37.38;;
75135;SDS011;63707;52.212;9.540;2023-02-16T05:48:16;113.70;;;38.47;;
75135;SDS011;63707;52.212;9.540;2023-02-16T05:50:41;109.63;;;36.45;;
75135;SDS011;63707;52.212;9.540;2023-02-16T05:53:07;99.78;;;34.60;;
75135;SDS011;63707;52.212;9.540;2023-02-16T05:55:32;85.70;;;28.85;;
75135;SDS011;63707;52.212;9.540;2023-02-16T05:57:58;112.03;;;36.25;;
75135;SDS011;63707;52.212;9.540;2023-02-16T06:00:23;108.72;;;35.05;;
75135;SDS011;63707;52.212;9.540;2023-02-16T06:02:51;117.88;;;39.70;;
75135;SDS011;63707;52.212;9.540;2023-02-16T06:05:16;114.82;;;38.45;;
75135;SDS011;63707;52.212;9.540;2023-02-16T06:07:42;115.10;;;37.85;;
75135;SDS011;63707;52.212;9.540;2023-02-16T06:10:08;114.30;;;36.45;;
75135;SDS011;63707;52.212;9.540;2023-02-16T06:12:33;110.28;;;36.03;;
75135;SDS011;63707;52.212;9.540;2023-02-16T06:14:59;102.10;;;34.20;;
75135;SDS011;63707;52.212;9.540;2023-02-16T06:17:25;110.68;;;37.72;;
75135;SDS011;63707;52.212;9.540;2023-02-16T06:19:53;117.70;;;38.08;;
75135;SDS011;63707;52.212;9.540;2023-02-16T06:22:19;116.47;;;37.42;;
75135;SDS011;63707;52.212;9.540;2023-02-16T06:24:45;114.35;;;36.42;;
75135;SDS011;63707;52.212;9.540;2023-02-16T06:27:10;114.07;;;35.45;;
75135;SDS011;63707;52.212;9.540;2023-02-16T06:29:36;103.20;;;34.55;;
75135;SDS011;63707;52.212;9.540;2023-02-16T06:32:01;100.25;;;33.65;;
75135;SDS011;63707;52.212;9.540;2023-02-16T06:34:27;114.50;;;38.30;;
75135;SDS011;63707;52.212;9.540;2023-02-16T06:36:54;109.88;;;36.78;;
75135;SDS011;63707;52.212;9.540;2023-02-16T06:39:19;107.40;;;37.88;;
75135;SDS011;63707;52.212;9.540;2023-02-16T06:41:45;117.65;;;35.25;;
75135;SDS011;63707;52.212;9.540;2023-02-16T06:44:11;103.72;;;34.45;;
75135;SDS011;63707;52.212;9.540;2023-02-16T06:46:37;115.40;;;36.03;;
75135;SDS011;63707;52.212;9.540;2023-02-16T06:49:03;98.10;;;33.53;;
75135;SDS011;63707;52.212;9.540;2023-02-16T06:51:29;105.55;;;35.58;;
75135;SDS011;63707;52.212;9.540;2023-02-16T06:53:56;103.93;;;35.35;;
75135;SDS011;63707;52.212;9.540;2023-02-16T06:56:22;100.07;;;32.90;;
75135;SDS011;63707;52.212;9.540;2023-02-16T06:58:47;96.63;;;31.95;;
75135;SDS011;63707;52.212;9.540;2023-02-16T07:01:13;89.85;;;31.02;;
75135;SDS011;63707;52.212;9.540;2023-02-16T07:03:39;98.38;;;35.05;;
75135;SDS011;63707;52.212;9.540;2023-02-16T07:06:05;75.88;;;27.63;;
75135;SDS011;63707;52.212;9.540;2023-02-16T07:08:30;87.13;;;31.15;;
75135;SDS011;63707;52.212;9.540;2023-02-16T07:10:57;84.63;;;31.30;;
75135;SDS011;63707;52.212;9.540;2023-02-16T07:13:23;85.72;;;29.73;;
75135;SDS011;63707;52.212;9.540;2023-02-16T07:15:48;84.55;;;31.83;;
75135;SDS011;63707;52.212;9.540;2023-02-16T07:18:14;82.65;;;30.63;;
75135;SDS011;63707;52.212;9.540;2023-02-16T07:20:39;82.60;;;29.70;;
75135;SDS011;63707;52.212;9.540;2023-02-16T07:23:05;74.78;;;30.92;;
75135;SDS011;63707;52.212;9.540;2023-02-16T07:25:30;81.30;;;30.05;;
75135;SDS011;63707;52.212;9.540;2023-02-16T07:27:57;79.57;;;28.67;;
75135;SDS011;63707;52.212;9.540;2023-02-16T07:30:23;75.05;;;27.35;;
75135;SDS011;63707;52.212;9.540;2023-02-16T07:32:48;80.00;;;29.80;;
75135;SDS011;63707;52.212;9.540;2023-02-16T07:35:14;79.15;;;30.08;;
75135;SDS011;63707;52.212;9.540;2023-02-16T07:37:39;76.40;;;29.42;;
75135;SDS011;63707;52.212;9.540;2023-02-16T07:40:05;69.97;;;26.70;;
75135;SDS011;63707;52.212;9.540;2023-02-16T07:45:09;74.63;;;28.48;;
75135;SDS011;63707;52.212;9.540;2023-02-16T07:47:35;81.53;;;29.30;;
75135;SDS011;63707;52.212;9.540;2023-02-16T07:50:00;66.07;;;25.55;;
75135;SDS011;63707;52.212;9.540;2023-02-16T07:52:26;68.72;;;26.38;;
75135;SDS011;63707;52.212;9.540;2023-02-16T07:54:55;69.05;;;25.67;;
75135;SDS011;63707;52.212;9.540;2023-02-16T07:57:20;63.08;;;23.73;;
75135;SDS011;63707;52.212;9.540;2023-02-16T07:59:46;64.35;;;25.63;;
75135;SDS011;63707;52.212;9.540;2023-02-16T08:02:15;65.20;;;26.63;;
75135;SDS011;63707;52.212;9.540;2023-02-16T08:04:41;62.58;;;25.88;;
75135;SDS011;63707;52.212;9.540;2023-02-16T08:07:09;61.55;;;27.02;;
75135;SDS011;63707;52.212;9.540;2023-02-16T08:09:35;58.03;;;24.70;;
75135;SDS011;63707;52.212;9.540;2023-02-16T08:12:01;56.13;;;25.77;;
75135;SDS011;63707;52.212;9.540;2023-02-16T08:14:26;52.95;;;23.55;;
75135;SDS011;63707;52.212;9.540;2023-02-16T08:16:52;50.15;;;23.10;;
75135;SDS011;63707;52.212;9.540;2023-02-16T08:19:19;46.13;;;22.35;;
75135;SDS011;63707;52.212;9.540;2023-02-16T08:21:44;52.25;;;24.48;;
75135;SDS011;63707;52.212;9.540;2023-02-16T08:24:13;48.15;;;22.42;;
75135;SDS011;63707;52.212;9.540;2023-02-16T08:26:39;48.83;;;22.95;;
75135;SDS011;63707;52.212;9.540;2023-02-16T08:29:07;48.30;;;23.52;;
75135;SDS011;63707;52.212;9.540;2023-02-16T08:31:34;41.75;;;20.42;;
75135;SDS011;63707;52.212;9.540;2023-02-16T08:34:02;41.33;;;20.70;;
75135;SDS011;63707;52.212;9.540;2023-02-16T08:36:31;43.28;;;22.35;;
75135;SDS011;63707;52.212;9.540;2023-02-16T08:38:58;39.22;;;20.17;;
75135;SDS011;63707;52.212;9.540;2023-02-16T08:41:27;47.03;;;22.35;;
75135;SDS011;63707;52.212;9.540;2023-02-16T08:43:54;42.50;;;21.98;;
75135;SDS011;63707;52.212;9.540;2023-02-16T08:46:21;44.40;;;23.25;;
75135;SDS011;63707;52.212;9.540;2023-02-16T08:48:47;43.95;;;22.70;;
75135;SDS011;63707;52.212;9.540;2023-02-16T08:51:13;43.47;;;22.83;;
75135;SDS011;63707;52.212;9.540;2023-02-16T08:53:40;45.83;;;22.67;;
75135;SDS011;63707;52.212;9.540;2023-02-16T08:56:05;42.50;;;22.25;;
75135;SDS011;63707;52.212;9.540;2023-02-16T08:58:33;44.13;;;20.13;;
75135;SDS011;63707;52.212;9.540;2023-02-16T09:01:02;48.22;;;23.45;;
75135;SDS011;63707;52.212;9.540;2023-02-16T09:03:28;50.15;;;23.63;;
75135;SDS011;63707;52.212;9.540;2023-02-16T09:05:53;52.83;;;23.60;;
75135;SDS011;63707;52.212;9.540;2023-02-16T09:08:19;55.63;;;24.00;;
75135;SDS011;63707;52.212;9.540;2023-02-16T09:10:47;55.03;;;24.48;;
75135;SDS011;63707;52.212;9.540;2023-02-16T09:13:12;51.45;;;23.05;;
75135;SDS011;63707;52.212;9.540;2023-02-16T09:15:41;56.72;;;25.23;;
75135;SDS011;63707;52.212;9.540;2023-02-16T09:18:07;55.22;;;25.38;;
75135;SDS011;63707;52.212;9.540;2023-02-16T09:20:36;59.92;;;24.30;;
75135;SDS011;63707;52.212;9.540;2023-02-16T09:23:03;55.92;;;24.42;;
75135;SDS011;63707;52.212;9.540;2023-02-16T09:25:29;55.13;;;23.77;;
75135;SDS011;63707;52.212;9.540;2023-02-16T09:27:56;59.08;;;23.52;;
75135;SDS011;63707;52.212;9.540;2023-02-16T09:30:21;54.92;;;24.30;;
75135;SDS011;63707;52.212;9.540;2023-02-16T09:32:48;59.53;;;25.10;;
75135;SDS011;63707;52.212;9.540;2023-02-16T09:35:13;57.15;;;24.55;;
75135;SDS011;63707;52.212;9.540;2023-02-16T09:37:39;58.05;;;24.83;;
75135;SDS011;63707;52.212;9.540;2023-02-16T09:40:06;56.75;;;23.42;;
75135;SDS011;63707;52.212;9.540;2023-02-16T09:42:36;64.95;;;25.88;;
75135;SDS011;63707;52.212;9.540;2023-02-16T09:45:18;60.03;;;23.55;;
75135;SDS011;63707;52.212;9.540;2023-02-16T09:47:47;65.18;;;27.42;;
75135;SDS011;63707;52.212;9.540;2023-02-16T09:50:16;59.35;;;25.00;;
75135;SDS011;63707;52.212;9.540;2023-02-16T09:52:47;63.78;;;25.65;;
75135;SDS011;63707;52.212;9.540;2023-02-16T09:55:17;60.15;;;25.45;;
75135;SDS011;63707;52.212;9.540;2023-02-16T09:57:58;60.72;;;24.42;;
75135;SDS011;63707;52.212;9.540;2023-02-16T10:00:36;61.75;;;26.05;;
75135;SDS011;63707;52.212;9.540;2023-02-16T10:03:12;64.40;;;27.70;;
75135;SDS011;63707;52.212;9.540;2023-02-16T10:05:51;60.88;;;26.40;;
75135;SDS011;63707;52.212;9.540;2023-02-16T10:08:26;73.38;;;30.92;;
75135;SDS011;63707;52.212;9.540;2023-02-16T10:10:55;61.38;;;26.95;;
75135;SDS011;63707;52.212;9.540;2023-02-16T10:13:29;71.97;;;30.33;;
75135;SDS011;63707;52.212;9.540;2023-02-16T10:16:03;62.13;;;27.23;;
75135;SDS011;63707;52.212;9.540;2023-02-16T10:18:34;58.38;;;24.23;;
75135;SDS011;63707;52.212;9.540;2023-02-16T10:21:05;62.40;;;25.23;;
75135;SDS011;63707;52.212;9.540;2023-02-16T10:23:40;61.15;;;26.52;;
75135;SDS011;63707;52.212;9.540;2023-02-16T10:26:13;53.42;;;23.00;;
75135;SDS011;63707;52.212;9.540;2023-02-16T10:28:44;57.65;;;25.67;;
75135;SDS011;63707;52.212;9.540;2023-02-16T10:31:14;54.63;;;22.88;;
75135;SDS011;63707;52.212;9.540;2023-02-16T10:33:50;55.47;;;23.00;;
75135;SDS011;63707;52.212;9.540;2023-02-16T10:36:28;54.38;;;24.02;;
75135;SDS011;63707;52.212;9.540;2023-02-16T10:39:05;50.72;;;21.50;;
75135;SDS011;63707;52.212;9.540;2023-02-16T10:41:41;57.55;;;25.90;;
75135;SDS011;63707;52.212;9.540;2023-02-16T10:44:14;59.97;;;25.20;;
75135;SDS011;63707;52.212;9.540;2023-02-16T10:46:47;56.00;;;24.63;;
75135;SDS011;63707;52.212;9.540;2023-02-16T10:49:19;52.53;;;24.67;;
75135;SDS011;63707;52.212;9.540;2023-02-16T10:51:46;60.13;;;27.52;;
75135;SDS011;63707;52.212;9.540;2023-02-16T10:54:15;57.08;;;25.25;;
75135;SDS011;63707;52.212;9.540;2023-02-16T10:56:46;52.60;;;23.10;;
75135;SDS011;63707;52.212;9.540;2023-02-16T10:59:17;53.25;;;23.98;;
75135;SDS011;63707;52.212;9.540;2023-02-16T11:01:45;52.72;;;24.35;;
75135;SDS011;63707;52.212;9.540;2023-02-16T11:07:08;55.78;;;22.40;;
75135;SDS011;63707;52.212;9.540;2023-02-16T11:09:35;54.08;;;24.67;;
75135;SDS011;63707;52.212;9.540;2023-02-16T11:12:03;52.55;;;24.17;;
75135;SDS011;63707;52.212;9.540;2023-02-16T11:14:39;54.05;;;21.73;;
75135;SDS011;63707;52.212;9.540;2023-02-16T11:17:14;50.08;;;23.45;;
75135;SDS011;63707;52.212;9.540;2023-02-16T11:19:46;52.75;;;23.67;;
75135;SDS011;63707;52.212;9.540;2023-02-16T11:22:22;52.15;;;24.35;;
75135;SDS011;63707;52.212;9.540;2023-02-16T11:24:50;48.65;;;21.08;;
75135;SDS011;63707;52.212;9.540;2023-02-16T11:27:17;44.97;;;22.08;;
75135;SDS011;63707;52.212;9.540;2023-02-16T11:29:44;49.20;;;22.35;;
75135;SDS011;63707;52.212;9.540;2023-02-16T11:32:10;48.47;;;23.13;;
75135;SDS011;63707;52.212;9.540;2023-02-16T11:34:39;49.03;;;23.85;;
75135;SDS011;63707;52.212;9.540;2023-02-16T11:37:12;45.97;;;21.90;;
75135;SDS011;63707;52.212;9.540;2023-02-16T11:39:46;49.95;;;22.50;;
75135;SDS011;63707;52.212;9.540;2023-02-16T11:42:19;39.90;;;18.25;;
75135;SDS011;63707;52.212;9.540;2023-02-16T11:44:52;44.78;;;20.30;;
75135;SDS011;63707;52.212;9.540;2023-02-16T11:47:22;41.10;;;19.20;;
75135;SDS011;63707;52.212;9.540;2023-02-16T11:50:03;40.90;;;19.30;;
75135;SDS011;63707;52.212;9.540;2023-02-16T11:52:40;41.75;;;20.85;;
75135;SDS011;63707;52.212;9.540;2023-02-16T11:55:17;40.55;;;21.88;;
75135;SDS011;63707;52.212;9.540;2023-02-16T11:57:45;41.95;;;20.67;;
75135;SDS011;63707;52.212;9.540;2023-02-16T12:00:13;41.42;;;19.23;;
75135;SDS011;63707;52.212;9.540;2023-02-16T12:02:47;36.13;;;17.70;;
75135;SDS011;63707;52.212;9.540;2023-02-16T12:05:40;37.13;;;18.73;;
75135;SDS011;63707;52.212;9.540;2023-02-16T12:08:20;37.10;;;18.77;;
75135;SDS011;63707;52.212;9.540;2023-02-16T12:11:07;37.45;;;19.75;;
75135;SDS011;63707;52.212;9.540;2023-02-16T12:13:43;36.55;;;19.63;;
75135;SDS011;63707;52.212;9.540;2023-02-16T12:16:19;34.08;;;19.05;;
75135;SDS011;63707;52.212;9.540;2023-02-16T12:18:58;31.98;;;16.73;;
75135;SDS011;63707;52.212;9.540;2023-02-16T12:21:35;35.03;;;18.67;;
75135;SDS011;63707;52.212;9.540;2023-02-16T12:24:07;36.35;;;18.45;;
75135;SDS011;63707;52.212;9.540;2023-02-16T12:26:46;37.67;;;19.00;;
75135;SDS011;63707;52.212;9.540;2023-02-16T12:29:22;38.80;;;19.48;;
75135;SDS011;63707;52.212;9.540;2023-02-16T12:32:04;39.35;;;20.63;;
75135;SDS011;63707;52.212;9.540;2023-02-16T12:34:41;35.67;;;18.75;;
75135;SDS011;63707;52.212;9.540;2023-02-16T12:37:19;38.63;;;18.15;;
75135;SDS011;63707;52.212;9.540;2023-02-16T12:39:51;40.90;;;19.27;;
75135;SDS011;63707;52.212;9.540;2023-02-16T12:45:17;39.03;;;19.20;;
75135;SDS011;63707;52.212;9.540;2023-02-16T12:47:46;37.63;;;19.55;;
75135;SDS011;63707;52.212;9.540;2023-02-16T12:50:17;40.85;;;19.75;;
75135;SDS011;63707;52.212;9.540;2023-02-16T12:52:47;38.05;;;18.45;;
75135;SDS011;63707;52.212;9.540;2023-02-16T12:55:19;38.05;;;19.42;;
75135;SDS011;63707;52.212;9.540;2023-02-16T12:57:50;45.50;;;20.17;;
75135;SDS011;63707;52.212;9.540;2023-02-16T13:00:23;37.30;;;18.17;;
75135;SDS011;63707;52.212;9.540;2023-02-16T13:02:55;40.90;;;18.95;;
75135;SDS011;63707;52.212;9.540;2023-02-16T13:05:28;37.05;;;18.55;;
75135;SDS011;63707;52.212;9.540;2023-02-16T13:07:59;40.15;;;18.33;;
75135;SDS011;63707;52.212;9.540;2023-02-16T13:10:32;38.85;;;17.83;;
75135;SDS011;63707;52.212;9.540;2023-02-16T13:13:03;36.17;;;17.27;;
75135;SDS011;63707;52.212;9.540;2023-02-16T13:15:34;39.47;;;19.90;;
75135;SDS011;63707;52.212;9.540;2023-02-16T13:18:03;41.42;;;19.63;;
75135;SDS011;63707;52.212;9.540;2023-02-16T13:20:34;38.95;;;19.08;;
75135;SDS011;63707;52.212;9.540;2023-02-16T13:23:11;41.78;;;18.45;;
75135;SDS011;63707;52.212;9.540;2023-02-16T13:29:00;43.40;;;20.43;;
75135;SDS011;63707;52.212;9.540;2023-02-16T13:31:48;39.28;;;17.30;;
75135;SDS011;63707;52.212;9.540;2023-02-16T13:34:38;39.08;;;18.73;;
75135;SDS011;63707;52.212;9.540;2023-02-16T13:37:23;43.88;;;18.80;;
75135;SDS011;63707;52.212;9.540;2023-02-16T13:40:19;40.65;;;19.55;;
75135;SDS011;63707;52.212;9.540;2023-02-16T13:45:46;38.15;;;18.98;;
75135;SDS011;63707;52.212;9.540;2023-02-16T13:48:20;38.05;;;19.15;;
75135;SDS011;63707;52.212;9.540;2023-02-16T13:50:53;37.65;;;19.30;;
75135;SDS011;63707;52.212;9.540;2023-02-16T13:53:21;38.22;;;17.23;;
75135;SDS011;63707;52.212;9.540;2023-02-16T13:55:49;37.13;;;18.98;;
75135;SDS011;63707;52.212;9.540;2023-02-16T13:58:41;38.97;;;19.15;;
75135;SDS011;63707;52.212;9.540;2023-02-16T14:04:03;41.83;;;19.85;;
75135;SDS011;63707;52.212;9.540;2023-02-16T14:06:31;41.45;;;17.85;;
75135;SDS011;63707;52.212;9.540;2023-02-16T14:12:20;40.08;;;19.35;;
75135;SDS011;63707;52.212;9.540;2023-02-16T14:14:55;37.90;;;17.85;;
75135;SDS011;63707;52.212;9.540;2023-02-16T14:17:25;36.57;;;18.87;;
75135;SDS011;63707;52.212;9.540;2023-02-16T14:19:53;42.33;;;20.33;;
75135;SDS011;63707;52.212;9.540;2023-02-16T14:22:22;43.95;;;20.48;;
75135;SDS011;63707;52.212;9.540;2023-02-16T14:24:53;38.10;;;19.70;;
75135;SDS011;63707;52.212;9.540;2023-02-16T14:27:39;37.80;;;18.58;;
75135;SDS011;63707;52.212;9.540;2023-02-16T14:30:12;37.83;;;17.92;;
75135;SDS011;63707;52.212;9.540;2023-02-16T14:35:13;41.05;;;19.83;;
75135;SDS011;63707;52.212;9.540;2023-02-16T14:37:43;39.13;;;18.08;;
75135;SDS011;63707;52.212;9.540;2023-02-16T14:40:19;38.50;;;18.92;;
75135;SDS011;63707;52.212;9.540;2023-02-16T14:42:54;38.92;;;19.17;;
75135;SDS011;63707;52.212;9.540;2023-02-16T14:48:44;40.17;;;19.92;;
75135;SDS011;63707;52.212;9.540;2023-02-16T14:54:40;44.53;;;21.55;;
75135;SDS011;63707;52.212;9.540;2023-02-16T14:57:28;41.45;;;20.35;;
75135;SDS011;63707;52.212;9.540;2023-02-16T15:00:00;41.85;;;19.20;;
75135;SDS011;63707;52.212;9.540;2023-02-16T15:02:31;40.65;;;20.23;;
75135;SDS011;63707;52.212;9.540;2023-02-16T15:05:12;42.60;;;21.17;;
75135;SDS011;63707;52.212;9.540;2023-02-16T15:07:40;39.15;;;19.40;;
75135;SDS011;63707;52.212;9.540;2023-02-16T15:10:06;42.20;;;19.45;;
75135;SDS011;63707;52.212;9.540;2023-02-16T15:12:36;38.78;;;19.88;;